Gainesville, Florida
Current Conditions -  °F | °C
As of 10:53 PM on Friday 31 Oct 2014 (Local Time) from KGNV Reporting Station
Clear Clear  
Wind Chill: 11°   Ceiling: Unl
Heat Index: 11°   Visibility: 10mi
Dew Point:   Wind: 7mph
Humidity: 83%   Direction: 280°W
Pressure: 29.9"   Gusts: NA
Location:  29.65°N, 82.32°W
Report Text: KGNV 010253Z AUTO 28006KT 10SM CLR 11/08 A2990 RMK AO2 SLP123 T01110083 50011
Loading
Personal Weather Stations






























Interactive Weather Map
Tropical Storm Tracking
New forecast layout! Learn more

10-Day Weather Forecast

Advertisements
Track Severe Weather on mobile